Time;durP1;ratioP1;P1;durP2;ratioP2;P2;SDS_P1;SDS_P2;PMS_P1;PMS_P2;Temp;Humidity;BMP_temperature;BMP_pressure;BME280_temperature;BME280_humidity;BME280_pressure;Samples;Min_cycle;Max_cycle;Signal;HPM_P1;HPM_P2
2021/12/11 00:01:09;;;;;;;57.85;27.48;;;4.90;99.90;;;;;;5091409;28;20070;-50
2021/12/11 00:03:39;;;;;;;63.33;25.63;;;5.10;99.90;;;;;;5088820;28;20039;-49
2021/12/11 00:06:45;;;;;;;63.83;27.95;;;5.10;99.90;;;;;;5092482;28;20551;-50
2021/12/11 00:09:22;;;;;;;52.08;20.63;;;5.00;99.90;;;;;;5050184;28;20099;-49
2021/12/11 00:12:01;;;;;;;65.18;23.58;;;5.00;99.90;;;;;;5025309;28;20045;-49
2021/12/11 00:14:29;;;;;;;54.75;23.02;;;4.90;99.90;;;;;;5046413;28;20025;-49
2021/12/11 00:16:55;;;;;;;59.22;25.92;;;4.60;99.90;;;;;;5050043;28;20208;-49
2021/12/11 00:19:27;;;;;;;61.63;22.42;;;4.70;99.90;;;;;;5050260;28;20500;-49
2021/12/11 00:21:55;;;;;;;74.78;24.77;;;4.70;99.90;;;;;;5050887;28;20033;-49
2021/12/11 00:24:26;;;;;;;70.75;27.55;;;4.60;99.90;;;;;;5050645;28;20032;-49
2021/12/11 00:27:00;;;;;;;50.95;21.20;;;4.80;99.90;;;;;;5050780;28;20045;-48
2021/12/11 00:29:27;;;;;;;64.10;21.88;;;4.60;99.90;;;;;;5050566;28;20045;-48
2021/12/11 00:32:01;;;;;;;57.55;18.88;;;4.50;99.90;;;;;;5050507;28;20044;-49
2021/12/11 00:34:28;;;;;;;44.10;16.58;;;4.40;99.90;;;;;;5030617;28;20029;-49
2021/12/11 00:37:03;;;;;;;61.10;23.48;;;4.40;99.90;;;;;;5030745;28;20045;-48
2021/12/11 00:39:30;;;;;;;53.92;23.30;;;4.40;99.90;;;;;;5030671;28;20491;-48
2021/12/11 00:42:00;;;;;;;83.07;23.23;;;4.60;99.90;;;;;;5030549;28;20402;-49
2021/12/11 00:44:38;;;;;;;60.33;19.55;;;4.60;99.90;;;;;;5034508;28;20044;-49
2021/12/11 00:47:32;;;;;;;93.18;22.25;;;4.40;99.90;;;;;;5080375;28;20046;-48
2021/12/11 00:49:59;;;;;;;94.05;24.48;;;4.40;99.90;;;;;;5050694;28;20400;-48
2021/12/11 00:52:35;;;;;;;85.38;24.45;;;4.50;99.90;;;;;;5070395;28;20238;-49
2021/12/11 00:55:08;;;;;;;63.63;24.60;;;4.50;99.90;;;;;;5078428;28;20567;-48
2021/12/11 00:57:34;;;;;;;60.95;21.88;;;4.60;99.90;;;;;;5070450;28;20032;-48
2021/12/11 01:00:09;;;;;;;63.22;23.33;;;4.50;99.90;;;;;;5070221;28;20059;-49
2021/12/11 01:02:35;;;;;;;59.20;24.63;;;4.20;99.90;;;;;;5053207;28;20064;-49
2021/12/11 01:05:03;;;;;;;61.67;24.92;;;4.40;99.90;;;;;;5084044;28;20066;-49
2021/12/11 01:07:32;;;;;;;74.50;23.67;;;4.50;99.90;;;;;;5081405;28;20033;-49
2021/12/11 01:10:07;;;;;;;52.08;24.55;;;4.60;99.90;;;;;;5072435;28;20032;-49
2021/12/11 01:12:48;;;;;;;55.22;23.45;;;4.70;99.90;;;;;;5072723;28;20040;-48
2021/12/11 01:15:17;;;;;;;52.72;22.77;;;4.90;99.90;;;;;;5073157;28;20365;-49
2021/12/11 01:18:21;;;;;;;56.28;23.25;;;4.80;99.90;;;;;;5072204;28;20044;-48
2021/12/11 01:21:07;;;;;;;58.85;24.38;;;4.60;99.90;;;;;;5073641;28;20040;-49
2021/12/11 01:26:11;;;;;;;51.20;20.33;;;4.30;99.90;;;;;;5072034;28;20051;-49
2021/12/11 01:28:37;;;;;;;42.42;19.13;;;4.20;99.90;;;;;;5075126;28;20061;-49
2021/12/11 01:31:07;;;;;;;55.67;23.35;;;4.00;99.90;;;;;;5072563;28;20039;-49
2021/12/11 01:33:34;;;;;;;39.85;19.38;;;4.10;99.90;;;;;;5072528;28;20071;-48
2021/12/11 01:36:00;;;;;;;53.72;20.50;;;4.00;99.90;;;;;;5072092;28;20028;-48
2021/12/11 01:38:29;;;;;;;35.83;13.75;;;3.80;99.90;;;;;;5072062;28;20028;-48
2021/12/11 01:40:58;;;;;;;48.40;22.25;;;3.80;99.90;;;;;;5072171;28;20029;-49
2021/12/11 01:43:27;;;;;;;57.30;21.80;;;3.80;99.90;;;;;;5072031;28;20510;-49
2021/12/11 01:45:56;;;;;;;46.45;20.63;;;3.90;99.90;;;;;;5072020;28;20032;-49
2021/12/11 01:48:32;;;;;;;53.85;22.92;;;4.10;99.90;;;;;;5072320;28;20032;-49
2021/12/11 01:51:24;;;;;;;44.78;22.92;;;4.20;99.90;;;;;;5074739;28;20032;-49
2021/12/11 01:53:56;;;;;;;;;;;4.40;99.90;;;;;;5069994;28;20131;-48
2021/12/11 01:56:24;;;;;;;54.47;20.80;;;4.30;99.90;;;;;;5069692;28;20413;-49
2021/12/11 01:59:05;;;;;;;54.00;23.48;;;4.10;99.90;;;;;;5069834;28;20041;-48
2021/12/11 02:02:09;;;;;;;62.92;24.02;;;4.20;99.90;;;;;;5069590;28;20035;-49
2021/12/11 02:04:38;;;;;;;48.58;22.77;;;4.50;99.90;;;;;;5010109;28;20081;-49
2021/12/11 02:07:09;;;;;;;46.45;21.85;;;4.70;99.90;;;;;;5010070;28;20173;-49
2021/12/11 02:09:37;;;;;;;49.72;22.20;;;4.70;99.90;;;;;;5009922;28;20387;-49
2021/12/11 02:12:35;;;;;;;40.40;19.77;;;4.70;99.90;;;;;;5009660;28;20058;-48
2021/12/11 02:15:05;;;;;;;49.05;21.90;;;4.70;99.90;;;;;;4951552;28;20058;-49
2021/12/11 02:17:52;;;;;;;49.85;23.77;;;4.60;99.90;;;;;;4951278;29;20484;-50
2021/12/11 02:20:27;;;;;;;48.55;21.70;;;4.40;99.90;;;;;;4951496;29;20035;-49
2021/12/11 02:22:54;;;;;;;45.78;24.02;;;4.50;99.90;;;;;;4951549;29;20063;-48
2021/12/11 02:25:34;;;;;;;44.67;20.30;;;4.60;99.90;;;;;;4951456;29;20075;-49
2021/12/11 02:28:08;;;;;;;40.42;19.10;;;4.60;99.90;;;;;;4951501;29;20397;-48
2021/12/11 02:30:47;;;;;;;33.97;18.15;;;4.70;99.90;;;;;;4951304;29;20118;-48
2021/12/11 02:33:16;;;;;;;46.63;23.60;;;4.50;99.90;;;;;;4951302;29;20695;-48
2021/12/11 02:36:11;;;;;;;46.53;24.05;;;4.50;99.90;;;;;;4964162;28;20094;-48
2021/12/11 02:38:43;;;;;;;54.13;24.70;;;4.60;99.90;;;;;;4861737;29;20045;-48
2021/12/11 02:41:19;;;;;;;56.05;24.73;;;4.70;99.90;;;;;;4879203;29;20116;-48
2021/12/11 02:43:55;;;;;;;52.75;22.90;;;4.80;99.90;;;;;;4879032;29;20083;-48
2021/12/11 02:46:36;;;;;;;54.30;24.40;;;4.80;99.90;;;;;;4878893;29;20041;-49
2021/12/11 02:49:16;;;;;;;51.20;24.58;;;4.90;99.90;;;;;;4879095;29;20193;-49
2021/12/11 02:51:45;;;;;;;49.00;23.95;;;5.00;99.90;;;;;;4927014;29;20431;-48
2021/12/11 02:54:26;;;;;;;52.47;25.40;;;5.10;99.90;;;;;;4954515;29;20047;-49
2021/12/11 02:56:58;;;;;;;58.05;27.15;;;5.30;99.90;;;;;;4938434;29;20039;-48
2021/12/11 02:59:27;;;;;;;53.92;23.92;;;5.10;99.90;;;;;;4954583;29;20039;-49
2021/12/11 03:02:01;;;;;;;55.10;27.83;;;5.10;99.90;;;;;;4954595;29;20106;-48
2021/12/11 03:04:42;;;;;;;53.25;24.02;;;5.00;99.90;;;;;;4966029;28;20558;-49
2021/12/11 03:07:12;;;;;;;51.45;24.25;;;5.10;99.90;;;;;;4973684;28;20080;-48
2021/12/11 03:09:43;;;;;;;51.38;24.25;;;5.20;99.90;;;;;;4973688;28;20039;-48
2021/12/11 03:12:11;;;;;;;47.53;22.98;;;5.10;99.90;;;;;;4973537;28;20058;-48
2021/12/11 03:14:38;;;;;;;54.97;24.60;;;5.00;99.90;;;;;;5007902;28;20037;-49
2021/12/11 03:17:05;;;;;;;52.53;25.30;;;5.00;99.90;;;;;;5074319;28;20084;-49
2021/12/11 03:19:39;;;;;;;59.90;25.08;;;5.00;99.90;;;;;;5074809;28;20024;-48
2021/12/11 03:22:09;;;;;;;51.85;24.88;;;5.10;99.90;;;;;;5074346;28;20027;-48
2021/12/11 03:24:35;;;;;;;54.67;24.98;;;5.00;99.90;;;;;;5074290;28;20388;-48
2021/12/11 03:27:02;;;;;;;40.63;20.75;;;5.00;99.90;;;;;;5074318;28;20456;-48
2021/12/11 03:29:28;;;;;;;49.30;20.67;;;4.80;99.90;;;;;;5089199;28;20037;-48
2021/12/11 03:31:54;;;;;;;50.55;21.50;;;4.70;99.90;;;;;;5074126;28;20071;-49
2021/12/11 03:34:26;;;;;;;46.33;23.25;;;4.70;99.90;;;;;;5074230;28;20060;-48
2021/12/11 03:36:53;;;;;;;55.08;22.30;;;4.70;99.90;;;;;;5074492;28;20424;-48
2021/12/11 03:39:27;;;;;;;74.40;22.52;;;4.70;99.90;;;;;;5074160;28;20102;-48
2021/12/11 03:41:55;;;;;;;70.57;22.52;;;4.60;99.90;;;;;;5073993;28;20027;-48
2021/12/11 03:44:22;;;;;;;52.63;21.88;;;4.70;99.90;;;;;;5074205;28;20032;-48
2021/12/11 03:46:52;;;;;;;61.33;20.70;;;4.60;99.90;;;;;;5073992;28;20024;-48
2021/12/11 03:49:19;;;;;;;54.58;23.15;;;4.60;99.90;;;;;;5073726;28;20455;-48
2021/12/11 03:51:48;;;;;;;69.18;22.58;;;4.60;99.90;;;;;;5073619;28;20032;-48
2021/12/11 03:54:23;;;;;;;69.07;21.95;;;4.60;99.90;;;;;;5071822;28;20076;-49
2021/12/11 03:56:48;;;;;;;66.45;24.02;;;4.70;99.90;;;;;;5091492;28;20036;-48
2021/12/11 03:59:14;;;;;;;56.60;22.15;;;4.60;99.90;;;;;;5024717;28;20043;-48
2021/12/11 04:01:51;;;;;;;62.40;23.30;;;4.60;99.90;;;;;;5074357;28;20069;-49
2021/12/11 04:04:31;;;;;;;65.38;25.60;;;4.60;99.90;;;;;;5091596;28;20032;-48
2021/12/11 04:07:00;;;;;;;74.30;26.00;;;4.60;99.90;;;;;;5091370;28;20083;-48
2021/12/11 04:09:27;;;;;;;64.03;25.30;;;4.70;99.90;;;;;;5091484;28;20172;-48
2021/12/11 04:11:55;;;;;;;61.63;24.33;;;4.70;99.90;;;;;;5091224;28;20036;-48
2021/12/11 04:14:25;;;;;;;58.63;24.33;;;4.70;99.90;;;;;;5091348;28;20036;-48
2021/12/11 04:16:53;;;;;;;63.03;25.90;;;4.80;99.90;;;;;;5088168;28;20048;-48
2021/12/11 04:19:19;;;;;;;75.32;27.67;;;4.70;99.90;;;;;;5091341;28;20027;-48
2021/12/11 04:21:46;;;;;;;85.88;30.48;;;4.80;99.90;;;;;;5091019;28;20039;-49
2021/12/11 04:24:14;;;;;;;72.18;28.05;;;4.80;99.90;;;;;;5091217;28;20486;-48
2021/12/11 04:26:41;;;;;;;73.68;29.17;;;4.90;99.90;;;;;;5090419;28;20560;-49
2021/12/11 04:29:08;;;;;;;72.53;28.08;;;5.00;99.90;;;;;;5054387;28;20400;-48
2021/12/11 04:31:36;;;;;;;57.15;24.63;;;5.20;99.90;;;;;;5088739;28;20025;-49
2021/12/11 04:34:08;;;;;;;50.00;21.08;;;5.20;99.90;;;;;;5072858;28;20043;-49
2021/12/11 04:36:44;;;;;;;61.50;24.73;;;5.00;99.90;;;;;;5073112;28;20703;-48
2021/12/11 04:39:12;;;;;;;63.35;25.80;;;5.00;99.90;;;;;;5072804;28;20025;-48
2021/12/11 04:41:49;;;;;;;54.03;24.40;;;5.00;99.90;;;;;;5073020;28;20028;-49
2021/12/11 04:44:31;;;;;;;55.88;24.70;;;5.10;99.90;;;;;;5073278;28;20032;-48
2021/12/11 04:46:57;;;;;;;55.45;23.90;;;5.10;99.90;;;;;;5072715;28;20095;-48
2021/12/11 04:49:33;;;;;;;57.58;23.20;;;5.10;99.90;;;;;;5072818;28;20380;-48
2021/12/11 04:52:15;;;;;;;56.63;25.17;;;5.00;99.90;;;;;;5086133;28;20127;-48
2021/12/11 04:57:53;;;;;;;56.97;25.52;;;5.00;99.90;;;;;;5072626;28;20031;-48
2021/12/11 05:00:27;;;;;;;60.17;25.38;;;5.30;99.90;;;;;;5072073;28;20109;-48
2021/12/11 05:03:24;;;;;;;57.45;24.92;;;5.30;99.90;;;;;;5072294;28;20091;-48
2021/12/11 05:08:59;;;;;;;63.45;25.58;;;5.40;99.90;;;;;;5085983;28;20381;-48
2021/12/11 05:11:14;;;;;;;59.50;25.02;;;5.50;99.90;;;;;;5072585;28;20036;-48
2021/12/11 05:13:40;;;;;;;69.03;26.98;;;5.70;99.90;;;;;;5072656;28;20403;-48
2021/12/11 05:16:13;;;;;;;79.30;28.73;;;5.90;99.90;;;;;;5072571;28;20128;-49
2021/12/11 05:18:42;;;;;;;68.95;27.88;;;6.10;99.90;;;;;;5072356;28;20505;-48
2021/12/11 05:21:12;;;;;;;71.85;28.08;;;6.20;99.90;;;;;;5072283;28;20417;-48
2021/12/11 05:23:39;;;;;;;58.60;25.90;;;6.40;99.90;;;;;;5072705;28;20024;-48
2021/12/11 05:26:05;;;;;;;68.22;24.25;;;6.40;99.90;;;;;;5072262;28;20047;-48
2021/12/11 05:28:32;;;;;;;78.25;28.02;;;6.30;99.90;;;;;;5053454;28;20033;-48
2021/12/11 05:31:00;;;;;;;54.33;24.17;;;6.30;99.90;;;;;;5072289;28;20028;-48
2021/12/11 05:33:26;;;;;;;61.63;28.45;;;6.20;99.90;;;;;;5072089;28;20119;-48
2021/12/11 05:35:52;;;;;;;62.63;28.35;;;6.10;99.90;;;;;;5072200;28;20068;-48
2021/12/11 05:38:21;;;;;;;67.53;30.17;;;6.30;99.90;;;;;;5072328;28;20479;-48
2021/12/11 05:40:51;;;;;;;80.97;31.05;;;6.40;99.90;;;;;;5090028;28;20044;-48
2021/12/11 05:43:19;;;;;;;86.30;30.67;;;6.50;99.90;;;;;;5089884;28;20037;-48
2021/12/11 05:45:45;;;;;;;101.80;32.83;;;6.60;99.90;;;;;;5090112;28;20503;-48
2021/12/11 05:48:11;;;;;;;104.85;35.58;;;6.60;99.90;;;;;;5089800;28;20070;-48
2021/12/11 05:50:45;;;;;;;129.98;34.55;;;6.20;99.90;;;;;;5090069;28;20119;-48
2021/12/11 05:53:12;;;;;;;149.68;40.13;;;5.70;99.90;;;;;;5089833;28;20508;-48
2021/12/11 05:55:40;;;;;;;93.28;32.58;;;5.70;99.90;;;;;;5090039;28;20557;-48
2021/12/11 05:58:15;;;;;;;61.90;26.50;;;5.70;99.90;;;;;;5090002;28;20081;-48
2021/12/11 06:00:46;;;;;;;49.75;20.45;;;5.40;99.90;;;;;;5089910;28;20044;-48
2021/12/11 06:03:13;;;;;;;45.33;22.50;;;5.20;99.90;;;;;;5089858;28;20024;-48
2021/12/11 06:05:41;;;;;;;53.08;22.58;;;5.10;99.90;;;;;;5081506;28;20127;-48
2021/12/11 06:08:08;;;;;;;58.00;24.95;;;5.00;99.90;;;;;;5069699;28;20361;-48
2021/12/11 06:10:36;;;;;;;74.63;27.88;;;5.20;99.90;;;;;;5072887;28;20043;-49
2021/12/11 06:13:03;;;;;;;86.60;27.88;;;5.30;99.90;;;;;;5092299;28;20472;-48
2021/12/11 06:15:30;;;;;;;84.28;29.27;;;5.30;99.90;;;;;;5078283;28;20039;-48
2021/12/11 06:17:57;;;;;;;104.78;30.38;;;5.40;99.90;;;;;;5077120;28;20715;-48
2021/12/11 06:20:27;;;;;;;76.93;26.67;;;5.20;99.90;;;;;;5091411;28;20089;-48
2021/12/11 06:22:54;;;;;;;92.47;27.50;;;5.30;99.90;;;;;;5095058;28;20035;-49
2021/12/11 06:25:27;;;;;;;88.78;26.90;;;5.20;99.90;;;;;;5092179;28;20036;-49
2021/12/11 06:27:53;;;;;;;98.93;30.33;;;5.20;99.90;;;;;;5095160;28;20020;-47
2021/12/11 06:30:21;;;;;;;94.38;29.77;;;5.20;99.90;;;;;;5072215;28;20041;-49
2021/12/11 06:32:48;;;;;;;81.80;27.38;;;5.20;99.90;;;;;;5087750;28;20047;-50
2021/12/11 06:35:53;;;;;;;97.05;37.00;;;5.20;99.90;;;;;;5084415;28;20036;-46
2021/12/11 06:38:23;;;;;;;74.80;33.08;;;5.10;99.90;;;;;;5072644;28;20946;-48
2021/12/11 06:40:53;;;;;;;74.35;28.70;;;5.20;99.90;;;;;;5039522;28;20047;-47
2021/12/11 06:43:20;;;;;;;69.63;27.20;;;5.20;99.90;;;;;;5039473;28;20119;-46
2021/12/11 06:45:47;;;;;;;63.70;26.63;;;5.20;99.90;;;;;;5072958;28;20025;-46
2021/12/11 06:48:14;;;;;;;62.60;25.73;;;5.20;99.90;;;;;;5072722;28;20037;-46
2021/12/11 06:50:40;;;;;;;75.78;30.70;;;5.20;99.90;;;;;;5072750;28;20029;-46
2021/12/11 06:53:11;;;;;;;81.57;36.08;;;5.10;99.90;;;;;;5072706;28;20036;-46
2021/12/11 06:55:37;;;;;;;126.20;41.70;;;5.40;99.90;;;;;;5070655;28;20040;-47
2021/12/11 06:58:03;;;;;;;79.07;37.00;;;5.70;99.90;;;;;;5072670;28;20028;-46
2021/12/11 07:00:29;;;;;;;135.60;47.42;;;5.90;99.90;;;;;;5072583;28;20052;-47
2021/12/11 07:02:55;;;;;;;128.02;45.92;;;6.00;99.90;;;;;;5072613;28;20152;-47
2021/12/11 07:05:21;;;;;;;81.07;40.67;;;6.10;99.90;;;;;;5055819;28;20050;-46
2021/12/11 07:07:47;;;;;;;73.53;40.25;;;6.20;99.90;;;;;;5072329;28;20594;-46
2021/12/11 07:10:15;;;;;;;58.95;33.97;;;6.20;99.90;;;;;;5038779;28;20142;-46
2021/12/11 07:12:44;;;;;;;65.82;38.45;;;6.20;99.90;;;;;;5038398;28;20431;-46
2021/12/11 07:15:10;;;;;;;55.95;33.63;;;6.40;99.90;;;;;;5072342;28;20041;-46
2021/12/11 07:17:37;;;;;;;55.20;35.78;;;6.20;99.90;;;;;;5072021;28;20666;-46
2021/12/11 07:20:06;;;;;;;59.70;35.65;;;6.30;99.90;;;;;;5054861;28;20032;-46
2021/12/11 07:22:31;;;;;;;59.88;40.33;;;6.40;99.90;;;;;;5055269;28;20037;-46
2021/12/11 07:25:08;;;;;;;94.03;58.92;;;6.50;99.90;;;;;;5071017;28;20043;-46
2021/12/11 07:27:34;;;;;;;79.18;45.40;;;6.50;99.90;;;;;;5054746;28;20474;-46
2021/12/11 07:30:00;;;;;;;79.93;49.83;;;6.40;99.90;;;;;;5053884;28;20037;-46
2021/12/11 07:32:26;;;;;;;83.68;47.90;;;6.40;99.90;;;;;;5070750;28;20041;-46
2021/12/11 07:34:52;;;;;;;90.88;52.67;;;6.20;99.90;;;;;;5048596;28;20114;-46
2021/12/11 07:37:18;;;;;;;77.05;43.03;;;6.10;99.90;;;;;;5068825;28;20031;-47
2021/12/11 07:39:44;;;;;;;156.00;87.35;;;5.80;99.90;;;;;;5065449;28;20052;-46
2021/12/11 07:42:10;;;;;;;161.48;90.22;;;5.90;99.90;;;;;;5034941;28;20137;-47
2021/12/11 07:44:36;;;;;;;98.47;59.13;;;6.10;99.90;;;;;;5085627;28;20571;-47
2021/12/11 07:47:03;;;;;;;91.15;55.75;;;6.10;99.90;;;;;;5071563;28;20032;-47
2021/12/11 07:49:29;;;;;;;72.10;46.38;;;6.10;99.90;;;;;;5091791;28;20016;-47
2021/12/11 07:51:55;;;;;;;57.17;38.72;;;6.00;99.90;;;;;;5091314;28;20032;-46
2021/12/11 07:54:22;;;;;;;72.53;48.30;;;6.10;99.90;;;;;;5092994;28;20028;-47
2021/12/11 07:56:48;;;;;;;71.82;45.70;;;6.20;99.90;;;;;;5088050;28;20077;-49
2021/12/11 07:59:14;;;;;;;71.95;46.13;;;6.20;99.90;;;;;;5104933;28;20016;-49
2021/12/11 08:01:44;;;;;;;67.18;42.53;;;6.30;99.90;;;;;;5088122;28;20099;-49
2021/12/11 08:04:11;;;;;;;46.13;29.92;;;6.30;99.90;;;;;;5093858;28;20020;-48
2021/12/11 08:06:38;;;;;;;65.20;38.92;;;6.30;99.90;;;;;;5093805;28;20475;-49
2021/12/11 08:09:07;;;;;;;60.33;36.78;;;6.30;99.90;;;;;;5079156;28;20097;-49
2021/12/11 08:11:34;;;;;;;93.93;61.47;;;6.20;99.90;;;;;;5075085;28;20055;-49
2021/12/11 08:14:01;;;;;;;54.42;36.83;;;6.40;99.90;;;;;;5074710;28;20040;-48
2021/12/11 08:16:33;;;;;;;45.75;36.25;;;6.50;99.90;;;;;;5089319;28;20048;-49
2021/12/11 08:19:01;;;;;;;50.40;34.90;;;6.70;99.90;;;;;;5073673;28;20047;-49
2021/12/11 08:21:27;;;;;;;57.88;38.08;;;6.80;99.90;;;;;;5088498;28;20097;-49
2021/12/11 08:23:55;;;;;;;79.97;49.35;;;6.70;99.90;;;;;;5009797;28;20117;-50
2021/12/11 08:26:24;;;;;;;73.50;47.78;;;6.70;99.90;;;;;;5009288;28;20363;-49
2021/12/11 08:28:50;;;;;;;40.40;27.02;;;6.60;99.90;;;;;;5010040;28;20390;-50
2021/12/11 08:31:18;;;;;;;35.58;26.83;;;6.60;99.90;;;;;;5010156;28;20034;-50
2021/12/11 08:33:45;;;;;;;39.95;30.02;;;6.60;99.90;;;;;;5009648;28;20142;-49
2021/12/11 08:36:11;;;;;;;29.52;22.05;;;6.60;99.90;;;;;;5009705;28;20648;-49
2021/12/11 08:38:37;;;;;;;26.63;20.85;;;6.50;99.90;;;;;;5009184;28;20066;-49
2021/12/11 08:41:05;;;;;;;37.47;25.70;;;6.40;99.90;;;;;;5010404;28;20594;-49
2021/12/11 08:43:32;;;;;;;44.47;29.02;;;6.10;99.90;;;;;;5010400;28;20034;-50
2021/12/11 08:46:12;;;;;;;42.17;28.90;;;6.30;99.90;;;;;;5010671;28;20038;-48
2021/12/11 08:48:42;;;;;;;66.90;43.78;;;6.10;99.90;;;;;;5010896;28;20488;-49
2021/12/11 08:51:13;;;;;;;51.47;36.17;;;6.10;99.90;;;;;;5010951;28;20588;-48
2021/12/11 08:53:39;;;;;;;57.55;40.63;;;6.20;99.90;;;;;;5010158;28;20532;-49
2021/12/11 08:56:08;;;;;;;55.08;37.08;;;6.30;99.90;;;;;;5053870;28;20036;-49
2021/12/11 08:58:34;;;;;;;51.70;37.67;;;6.30;99.90;;;;;;5072562;28;20035;-49
2021/12/11 09:01:16;;;;;;;109.38;69.25;;;6.30;99.90;;;;;;5072464;28;20033;-49
2021/12/11 09:03:44;;;;;;;45.40;32.00;;;6.30;99.90;;;;;;5072840;28;20079;-48
2021/12/11 09:06:23;;;;;;;44.97;30.08;;;6.10;99.90;;;;;;5072474;28;20112;-48
2021/12/11 09:09:11;;;;;;;35.72;24.58;;;6.10;99.90;;;;;;5090305;28;20035;-48
2021/12/11 09:11:46;;;;;;;27.83;20.05;;;6.10;99.90;;;;;;5092785;28;20028;-48
2021/12/11 09:14:17;;;;;;;32.40;21.35;;;6.10;99.90;;;;;;5092905;28;20031;-48
2021/12/11 09:16:53;;;;;;;43.95;34.65;;;6.00;99.90;;;;;;5052179;28;20492;-47
2021/12/11 09:19:40;;;;;;;35.63;25.92;;;6.00;99.90;;;;;;5049239;28;20100;-48
2021/12/11 09:22:06;;;;;;;37.00;25.63;;;5.90;99.90;;;;;;5052859;28;20060;-48
2021/12/11 09:24:40;;;;;;;41.78;30.45;;;5.90;99.90;;;;;;5050139;28;20531;-48
2021/12/11 09:27:29;;;;;;;37.05;27.45;;;6.00;99.90;;;;;;5049977;28;20611;-48
2021/12/11 09:30:12;;;;;;;43.83;31.95;;;6.00;99.90;;;;;;5048801;28;20443;-48
2021/12/11 09:32:46;;;;;;;46.40;35.25;;;6.10;99.90;;;;;;5046708;28;20457;-49
2021/12/11 09:35:33;;;;;;;45.83;34.58;;;6.30;99.90;;;;;;5050129;28;20063;-48
2021/12/11 09:38:11;;;;;;;48.85;34.90;;;6.30;99.90;;;;;;5030561;28;20045;-48
2021/12/11 09:40:37;;;;;;;61.35;41.60;;;6.40;99.90;;;;;;5030802;28;20433;-47
2021/12/11 09:43:03;;;;;;;45.22;32.22;;;6.40;99.90;;;;;;5034590;28;20113;-48
2021/12/11 09:45:41;;;;;;;45.45;33.90;;;6.50;99.90;;;;;;5049184;28;20040;-48
2021/12/11 09:48:14;;;;;;;90.88;81.13;;;6.50;99.90;;;;;;5042096;28;20047;-48
2021/12/11 09:50:49;;;;;;;46.33;33.38;;;6.60;99.90;;;;;;5091926;28;20051;-49
2021/12/11 09:53:17;;;;;;;52.28;38.65;;;6.60;99.90;;;;;;5093982;28;20139;-48
2021/12/11 09:55:43;;;;;;;43.10;31.48;;;6.70;99.90;;;;;;5091925;28;20043;-48
2021/12/11 09:58:17;;;;;;;54.15;37.95;;;6.70;99.90;;;;;;5094078;28;20372;-47
2021/12/11 10:00:54;;;;;;;44.40;32.13;;;6.80;99.90;;;;;;5091233;28;20032;-48
2021/12/11 10:03:26;;;;;;;39.75;26.73;;;6.80;99.90;;;;;;5093931;28;20035;-47
2021/12/11 10:05:56;;;;;;;47.93;34.47;;;6.80;99.90;;;;;;5093870;28;20032;-47
2021/12/11 10:08:38;;;;;;;49.10;34.70;;;6.70;99.90;;;;;;5093865;28;20535;-48
2021/12/11 10:11:27;;;;;;;49.85;34.40;;;6.80;99.90;;;;;;5093326;28;20040;-46
2021/12/11 10:14:00;;;;;;;59.47;37.53;;;6.90;99.90;;;;;;5093444;28;20046;-47
2021/12/11 10:16:31;;;;;;;51.08;39.35;;;6.90;99.90;;;;;;5093532;28;20039;-47
2021/12/11 10:18:58;;;;;;;45.40;33.30;;;6.70;99.90;;;;;;5110624;28;20131;-47
2021/12/11 10:21:37;;;;;;;61.85;40.72;;;6.80;99.90;;;;;;5093309;28;20036;-47
2021/12/11 10:24:07;;;;;;;58.78;38.22;;;6.90;99.90;;;;;;5095248;28;20484;-47
2021/12/11 10:26:33;;;;;;;54.33;37.42;;;6.90;99.90;;;;;;5095509;28;20066;-48
2021/12/11 10:29:02;;;;;;;56.15;36.03;;;6.80;99.90;;;;;;5096265;28;20032;-47
2021/12/11 10:31:41;;;;;;;56.13;38.58;;;6.90;99.90;;;;;;5095572;28;20077;-47
2021/12/11 10:34:12;;;;;;;62.05;39.70;;;6.90;99.90;;;;;;5094647;28;20115;-48
2021/12/11 10:36:42;;;;;;;49.80;35.95;;;7.10;99.90;;;;;;5094571;28;20021;-48
2021/12/11 10:39:10;;;;;;;45.55;31.13;;;7.20;99.90;;;;;;5075566;28;20040;-47
2021/12/11 10:41:37;;;;;;;43.60;30.40;;;7.10;99.90;;;;;;5094532;28;20422;-48
2021/12/11 10:44:10;;;;;;;36.47;27.45;;;7.30;99.90;;;;;;5075639;28;20428;-47
2021/12/11 10:46:41;;;;;;;38.30;27.45;;;7.50;99.90;;;;;;5094177;28;20101;-47
2021/12/11 10:49:10;;;;;;;38.57;28.00;;;7.50;99.90;;;;;;5094671;28;20024;-47
2021/12/11 10:51:44;;;;;;;37.92;27.30;;;7.30;99.90;;;;;;5094447;28;20035;-47
2021/12/11 10:54:13;;;;;;;41.45;29.48;;;7.40;99.90;;;;;;5092187;28;20113;-48
2021/12/11 10:56:40;;;;;;;43.42;31.38;;;7.40;99.90;;;;;;5094342;28;20492;-47
2021/12/11 10:59:13;;;;;;;45.15;30.92;;;7.60;99.90;;;;;;5093215;28;20031;-47
2021/12/11 11:01:43;;;;;;;40.47;30.30;;;7.60;99.90;;;;;;5094328;28;20028;-47
2021/12/11 11:04:18;;;;;;;49.50;33.65;;;7.70;99.90;;;;;;5094212;28;20024;-48
2021/12/11 11:06:45;;;;;;;45.78;29.80;;;7.60;99.90;;;;;;5094004;28;20388;-47
2021/12/11 11:09:13;;;;;;;54.88;36.45;;;7.50;99.90;;;;;;5091901;28;20430;-47
2021/12/11 11:11:41;;;;;;;46.30;33.95;;;7.60;99.90;;;;;;5094246;28;20392;-47
2021/12/11 11:14:09;;;;;;;53.40;35.92;;;7.70;99.90;;;;;;5093879;28;20039;-47
2021/12/11 11:16:38;;;;;;;57.58;45.65;;;7.80;99.90;;;;;;5093763;28;20046;-47
2021/12/11 11:19:04;;;;;;;55.03;35.60;;;7.80;99.90;;;;;;5093861;28;20488;-48
2021/12/11 11:21:35;;;;;;;77.28;53.35;;;7.90;99.90;;;;;;5093913;28;20073;-47
2021/12/11 11:24:02;;;;;;;47.55;34.10;;;7.90;99.90;;;;;;5093843;28;20023;-47
2021/12/11 11:26:31;;;;;;;52.55;35.35;;;7.80;99.90;;;;;;5093757;28;20028;-47
2021/12/11 11:28:59;;;;;;;47.25;32.92;;;7.90;99.90;;;;;;5093671;28;20061;-47
2021/12/11 11:31:34;;;;;;;56.97;36.85;;;7.90;99.90;;;;;;5093531;28;20028;-48
2021/12/11 11:34:01;;;;;;;44.10;29.42;;;8.00;99.90;;;;;;5093636;28;20051;-47
2021/12/11 11:36:27;;;;;;;45.15;31.13;;;8.10;99.90;;;;;;5093540;28;20028;-48
2021/12/11 11:38:57;;;;;;;37.22;25.15;;;7.90;99.90;;;;;;5093491;28;20027;-48
2021/12/11 11:41:28;;;;;;;46.38;32.92;;;7.80;99.90;;;;;;5093661;28;20031;-47
2021/12/11 11:43:54;;;;;;;35.75;27.05;;;7.70;99.90;;;;;;5093524;28;20024;-47
2021/12/11 11:46:22;;;;;;;48.50;33.88;;;7.70;99.90;;;;;;5093394;28;20024;-47
2021/12/11 11:48:50;;;;;;;38.50;26.70;;;7.70;99.90;;;;;;5093225;28;20028;-48
2021/12/11 11:51:23;;;;;;;40.95;27.80;;;7.60;99.90;;;;;;5090629;28;20067;-48
2021/12/11 11:53:49;;;;;;;33.80;22.80;;;7.70;99.90;;;;;;5090284;28;20032;-47
2021/12/11 11:56:19;;;;;;;36.47;25.63;;;7.70;99.90;;;;;;5073561;28;20047;-48
2021/12/11 11:58:45;;;;;;;40.35;27.05;;;7.90;99.90;;;;;;5073607;28;20036;-47
2021/12/11 12:01:21;;;;;;;39.40;28.40;;;8.00;99.90;;;;;;5090672;28;20400;-48
2021/12/11 12:03:48;;;;;;;44.50;29.67;;;7.80;99.90;;;;;;5090635;28;20064;-48
2021/12/11 12:06:22;;;;;;;43.20;30.58;;;7.90;99.90;;;;;;5090507;28;20059;-47
2021/12/11 12:08:49;;;;;;;41.35;31.25;;;8.00;99.90;;;;;;5090619;28;20032;-48
2021/12/11 12:11:16;;;;;;;37.00;27.75;;;8.00;99.90;;;;;;5090249;28;20036;-48
2021/12/11 12:13:42;;;;;;;40.88;30.23;;;8.20;99.90;;;;;;5090362;28;20067;-47
2021/12/11 12:16:12;;;;;;;50.25;34.95;;;8.10;99.90;;;;;;5087609;28;20471;-48
2021/12/11 12:18:41;;;;;;;46.88;34.38;;;;;;;;;;5089349;28;20395;-48
2021/12/11 12:21:11;;;;;;;44.92;33.80;;;8.10;99.90;;;;;;5071454;28;20077;-47
2021/12/11 12:23:37;;;;;;;48.13;33.83;;;7.90;99.90;;;;;;5075047;28;20050;-48
2021/12/11 12:26:11;;;;;;;47.95;35.53;;;8.00;99.90;;;;;;5087891;28;20548;-48
2021/12/11 12:28:37;;;;;;;54.25;38.88;;;7.90;99.90;;;;;;5091369;28;20024;-48
2021/12/11 12:31:09;;;;;;;55.38;40.30;;;7.90;99.90;;;;;;5069985;28;20052;-47
2021/12/11 12:33:35;;;;;;;48.70;34.70;;;7.70;99.90;;;;;;5088996;28;20563;-48
2021/12/11 12:36:04;;;;;;;50.90;35.85;;;7.90;99.90;;;;;;5087347;28;20123;-48
2021/12/11 12:38:32;;;;;;;49.67;36.17;;;8.20;99.90;;;;;;5090693;28;20032;-48
2021/12/11 12:41:07;;;;;;;53.80;36.65;;;8.20;99.90;;;;;;5085099;28;20051;-49
2021/12/11 12:46:14;;;;;;;49.95;33.33;;;8.30;99.90;;;;;;5088074;28;20086;-48
2021/12/11 12:48:40;;;;;;;63.90;42.10;;;8.30;99.90;;;;;;5090825;28;20035;-48
2021/12/11 12:51:10;;;;;;;55.55;40.75;;;8.30;99.90;;;;;;5091347;28;20028;-47
2021/12/11 12:53:37;;;;;;;82.05;54.45;;;8.40;99.90;;;;;;5089549;28;20059;-48
2021/12/11 12:56:08;;;;;;;65.53;41.92;;;8.20;99.90;;;;;;5103551;28;20024;-45
2021/12/11 12:59:02;;;;;;;65.13;41.58;;;8.10;99.90;;;;;;5087640;28;20035;-50
2021/12/11 13:01:37;;;;;;;54.00;35.92;;;8.00;99.90;;;;;;5090299;28;20549;-47
2021/12/11 13:04:06;;;;;;;56.67;38.58;;;8.10;99.90;;;;;;5090956;28;20460;-46
2021/12/11 13:06:37;;;;;;;43.30;32.30;;;8.20;99.90;;;;;;5091197;28;20114;-46
2021/12/11 13:09:12;;;;;;;35.72;24.10;;;8.30;99.90;;;;;;5050613;28;20453;-46